Brooks, Iowa
Current Conditions -  °F | °C
As of 2:15 PM on Sunday 23 Nov 2014 (Local Time) from KCSQ Reporting Station
Haze Haze  
Wind Chill: 54°   Ceiling: 400
Heat Index: 54°   Visibility: 5mi
Dew Point: 54°   Wind: 14mph
Humidity: 100%   Direction: 310°NW
Pressure: 29.36"   Gusts: 25mph
Location:  41.0285°N, 94.7568°W
Report Text: KCSQ 232015Z AUTO 31012G22KT 5SM BR OVC004 12/12 A2936 RMK AO2
Loading
Personal Weather Stations






























Interactive Weather Map New forecast layout! Learn more

10-Day Weather Forecast

Advertisements
Track Severe Weather on mobile